logo
Rechercher aéroport 
image banner adimage banner adimage banner ad
image banner ad

MRFL - Florencia

Situé à San Carlos, Costa Rica

ICAO - MRFL, IATA - FMG

Données fournies par Airmate  

Information générale

Coordonnées: N10°22'54" W84°29'21"
Élévation : 270 feet MSL.
 
Voir autres Aéroports à Guanacaste

Données opérationnelles

Special qualification required
Heure actuelle UTC:
Heure actuelle locale:
Météo à : MROC - Juan Santamaria Intl ( 53 km )
METAR: MROC 251800Z 23008KT 9999 FEW035 28/21 A3005 NOSIG
TAF: MROC 251730Z 2518/2618 25010KT 9999 FEW030 TX29/2519Z TN20/2611Z TEMPO 2520/2523 TSRA SCT015CB TEMPO 2600/2604 BKN010 BECMG 2605/2607 06007KT BECMG 2614/2616 26010KT
Voir NOTAMs / SUP AIP / TFR affectant cet aéroport [VIEW]
Fréquences de communication: [VIEW]

Pistes:

Identifiant RWYQFULongueur (ft)Largeur (ft)SurfaceLDA (ft)
0500UNK
2300UNK

Coordonnées de l'aéroport

Adresse: San Carlos Costa Rica

Vue satellite de MRFL